| Date | Time | Temp. (oF) | Dew Point (oF) | Rel. Hum. (%) | Press. (in.) | Wind Dir. | Wind Speed (mph) | Hourly Rainfall (in.) |
|
|---|---|---|---|---|---|---|---|---|---|
| 1 | 06/11 | 00:00 | 73 | 71 | 96 | 29.92 | WSW | 1 | 0.00 |
| 2 | 06/10 | 23:00 | 73 | 72 | 98 | 29.91 | WSW | 0 | 0.00 |
| 3 | 06/10 | 22:00 | 73 | 72 | 100 | 29.89 | NW | 2 | 0.04 |
| 4 | 06/10 | 21:00 | 74 | 73 | 99 | 29.88 | NE | 3 | 0.01 |
| 5 | 06/10 | 20:00 | 74 | 73 | 97 | 29.88 | NE | 3 | 0.02 |
| 6 | 06/10 | 19:00 | 74 | 71 | 93 | 29.82 | N | 6 | 0.52 |
| 7 | 06/10 | 18:00 | 74 | 67 | 81 | 29.78 | N | 9 | 0.22 |
| 8 | 06/10 | 17:00 | 96 | 74 | 50 | 29.75 | SSW | 4 | 0.00 |
| 9 | 06/10 | 16:00 | 97 | 72 | 46 | 29.79 | W | 5 | 0.00 |
| 10 | 06/10 | 15:00 | 95 | 70 | 46 | 29.81 | SSW | 6 | 0.00 |
| 11 | 06/10 | 14:00 | 95 | 70 | 45 | 29.84 | SSW | 7 | 0.00 |
| 12 | 06/10 | 13:00 | 95 | 71 | 47 | 29.86 | NW | 3 | 0.00 |
| 13 | 06/10 | 12:00 | 94 | 71 | 49 | 29.88 | SSW | 3 | 0.00 |
| 14 | 06/10 | 11:00 | 92 | 72 | 54 | 29.89 | S | 2 | 0.00 |
| 15 | 06/10 | 10:00 | 88 | 74 | 65 | 29.91 | NW | 2 | 0.00 |
| 16 | 06/10 | 09:00 | 85 | 74 | 72 | 29.90 | WNW | 1 | 0.00 |
| 17 | 06/10 | 08:00 | 78 | 75 | 91 | 29.91 | WSW | 1 | 0.00 |
| 18 | 06/10 | 07:00 | 73 | 72 | 97 | 29.91 | WSW | 0 | 0.00 |
| 19 | 06/10 | 06:00 | 72 | 70 | 96 | 29.89 | WSW | 0 | 0.00 |
| 20 | 06/10 | 05:00 | 73 | 71 | 95 | 29.88 | WSW | 0 | 0.00 |
| 21 | 06/10 | 04:00 | 74 | 71 | 92 | 29.88 | WSW | 0 | 0.00 |
| 22 | 06/10 | 03:00 | 75 | 71 | 88 | 29.89 | WSW | 0 | 0.00 |
| 23 | 06/10 | 02:00 | 77 | 71 | 83 | 29.88 | WSW | 0 | 0.00 |
| 24 | 06/10 | 01:00 | 78 | 70 | 79 | 29.88 | WSW | 1 | 0.00 |